createdAt,value
2022-10-23T00:00:40.157Z,10.90
2022-10-23T00:02:42.109Z,10.90
2022-10-23T00:04:43.952Z,10.90
2022-10-23T00:06:46.632Z,10.90
2022-10-23T00:08:48.544Z,10.90
2022-10-23T00:10:50.124Z,10.90
2022-10-23T00:12:52.242Z,10.80
2022-10-23T00:14:53.882Z,10.80
2022-10-23T00:16:55.564Z,10.80
2022-10-23T00:18:57.620Z,10.70
2022-10-23T00:20:59.306Z,10.70
2022-10-23T00:23:01.028Z,10.70
2022-10-23T00:25:02.720Z,10.70
2022-10-23T00:27:04.385Z,10.60
2022-10-23T00:29:06.285Z,10.60
2022-10-23T00:31:07.955Z,10.60
2022-10-23T00:33:10.355Z,10.60
2022-10-23T00:35:11.968Z,10.60
2022-10-23T00:37:13.611Z,10.60
2022-10-23T00:39:15.248Z,10.50
2022-10-23T00:41:19.767Z,10.60
2022-10-23T00:43:22.922Z,10.50
2022-10-23T00:45:26.629Z,10.50
2022-10-23T00:47:28.273Z,10.50
2022-10-23T00:49:30.941Z,10.50
2022-10-23T00:51:41.453Z,10.50
2022-10-23T00:53:43.512Z,10.50
2022-10-23T00:55:47.013Z,10.50
2022-10-23T00:57:49.296Z,10.40
2022-10-23T00:59:50.994Z,10.40
2022-10-23T01:01:52.838Z,10.40
2022-10-23T01:03:54.629Z,10.40
2022-10-23T01:05:56.230Z,10.40
2022-10-23T01:08:07.945Z,10.40
2022-10-23T01:10:18.649Z,10.40
2022-10-23T01:12:38.457Z,10.40
2022-10-23T01:14:58.541Z,10.30
2022-10-23T01:17:06.102Z,10.30
2022-10-23T01:19:28.232Z,10.30
2022-10-23T01:21:39.076Z,10.30
2022-10-23T01:23:46.380Z,10.30
2022-10-23T01:25:54.161Z,10.30
2022-10-23T01:28:01.614Z,10.20
2022-10-23T01:30:06.106Z,10.20
2022-10-23T01:32:13.468Z,10.20
2022-10-23T01:34:20.596Z,10.20
2022-10-23T01:36:24.134Z,10.20
2022-10-23T01:38:28.685Z,10.10
2022-10-23T01:40:35.991Z,10.10
2022-10-23T01:42:40.385Z,10.10
2022-10-23T01:44:47.611Z,10.10
2022-10-23T01:46:50.155Z,10.00
2022-10-23T01:48:53.053Z,10.00
2022-10-23T01:51:00.074Z,10.00
2022-10-23T01:53:03.102Z,10.00
2022-10-23T01:55:05.557Z,9.90
2022-10-23T01:57:09.304Z,9.90
2022-10-23T01:59:13.773Z,9.90
2022-10-23T02:01:16.604Z,9.90
2022-10-23T02:03:18.425Z,9.90
2022-10-23T02:05:20.043Z,9.90
2022-10-23T02:07:21.959Z,9.90
2022-10-23T02:09:23.673Z,9.90
2022-10-23T02:11:25.409Z,9.90
2022-10-23T02:13:32.704Z,9.80
2022-10-23T02:15:41.611Z,9.90
2022-10-23T02:17:47.821Z,9.80
2022-10-23T02:19:53.784Z,9.80
2022-10-23T02:21:58.273Z,9.80
2022-10-23T02:24:05.266Z,9.80
2022-10-23T02:26:10.194Z,9.70
2022-10-23T02:28:14.217Z,9.70
2022-10-23T02:30:18.074Z,9.60
2022-10-23T02:32:21.385Z,9.60
2022-10-23T02:34:23.055Z,9.60
2022-10-23T02:36:24.753Z,9.60
2022-10-23T02:38:30.968Z,9.60
2022-10-23T02:40:44.275Z,9.50
2022-10-23T02:42:51.359Z,9.60
2022-10-23T02:45:01.335Z,9.50
2022-10-23T02:47:13.050Z,9.50
2022-10-23T02:49:33.549Z,9.50
2022-10-23T02:51:54.137Z,9.50
2022-10-23T02:53:58.833Z,9.50
2022-10-23T02:56:10.194Z,9.50
2022-10-23T02:58:14.589Z,9.50
2022-10-23T03:00:17.972Z,9.40
2022-10-23T03:02:23.065Z,9.40
2022-10-23T03:04:26.107Z,9.40
2022-10-23T03:06:27.712Z,9.40
2022-10-23T03:08:29.547Z,9.40
2022-10-23T03:10:31.236Z,9.40
2022-10-23T03:12:33.047Z,9.40
2022-10-23T03:14:34.705Z,9.40
2022-10-23T03:16:36.340Z,9.40
2022-10-23T03:18:38.048Z,9.40
2022-10-23T03:20:39.792Z,9.40
2022-10-23T03:22:41.749Z,9.30
2022-10-23T03:24:43.677Z,9.30
2022-10-23T03:26:45.311Z,9.30
2022-10-23T03:28:46.918Z,9.30
2022-10-23T03:30:48.841Z,9.30
2022-10-23T03:32:50.474Z,9.30
2022-10-23T03:34:52.069Z,9.30
2022-10-23T03:36:53.766Z,9.30
2022-10-23T03:38:56.555Z,9.30
2022-10-23T03:40:58.189Z,9.30
2022-10-23T03:42:59.893Z,9.30
2022-10-23T03:45:01.714Z,9.30
2022-10-23T03:47:03.536Z,9.30
2022-10-23T03:49:05.771Z,9.30
2022-10-23T03:51:07.402Z,9.20
2022-10-23T03:53:09.048Z,9.20
2022-10-23T03:55:10.795Z,9.20
2022-10-23T03:57:12.553Z,9.30
2022-10-23T03:59:14.232Z,9.30
2022-10-23T04:01:15.943Z,9.30
2022-10-23T04:03:17.650Z,9.30
2022-10-23T04:05:19.260Z,9.30
2022-10-23T04:07:20.894Z,9.30
2022-10-23T04:09:22.543Z,9.30
2022-10-23T04:11:24.141Z,9.20
2022-10-23T04:13:25.774Z,9.30
2022-10-23T04:15:27.401Z,9.30
2022-10-23T04:17:29.058Z,9.20
2022-10-23T04:19:30.724Z,9.20
2022-10-23T04:21:32.377Z,9.20
2022-10-23T04:23:34.114Z,9.20
2022-10-23T04:25:35.778Z,9.30
2022-10-23T04:27:37.458Z,9.20
2022-10-23T04:29:39.075Z,9.20
2022-10-23T04:31:40.698Z,9.20
2022-10-23T04:33:42.393Z,9.20
2022-10-23T04:35:44.007Z,9.20
2022-10-23T04:37:46.027Z,9.20
2022-10-23T04:39:47.678Z,9.20
2022-10-23T04:41:49.320Z,9.20
2022-10-23T04:43:50.932Z,9.30
2022-10-23T04:45:52.555Z,9.20
2022-10-23T04:47:54.279Z,9.30
2022-10-23T04:49:55.968Z,9.20
2022-10-23T04:51:57.650Z,9.30
2022-10-23T04:53:59.292Z,9.30
2022-10-23T04:56:01.024Z,9.30
2022-10-23T04:58:02.693Z,9.30
2022-10-23T05:00:06.102Z,9.30
2022-10-23T05:02:07.756Z,9.30
2022-10-23T05:04:09.420Z,9.30
2022-10-23T05:06:11.283Z,9.30
2022-10-23T05:08:15.643Z,9.30
2022-10-23T05:10:19.722Z,9.30
2022-10-23T05:12:21.427Z,9.30
2022-10-23T05:14:23.123Z,9.30
2022-10-23T05:16:30.648Z,9.30
2022-10-23T05:18:34.200Z,9.20
2022-10-23T05:20:36.403Z,9.20
2022-10-23T05:22:39.195Z,9.30
2022-10-23T05:24:40.856Z,9.20
2022-10-23T05:26:42.489Z,9.20
2022-10-23T05:28:44.167Z,9.20
2022-10-23T05:30:45.796Z,9.20
2022-10-23T05:32:47.705Z,9.20
2022-10-23T05:34:49.349Z,9.10
2022-10-23T05:36:51.235Z,9.20
2022-10-23T05:38:53.473Z,9.10
2022-10-23T05:40:55.148Z,9.10
2022-10-23T05:42:56.799Z,9.20
2022-10-23T05:44:58.483Z,9.10
2022-10-23T05:47:00.129Z,9.10
2022-10-23T05:49:01.919Z,9.10
2022-10-23T05:51:04.763Z,9.10
2022-10-23T05:53:06.368Z,9.10
2022-10-23T05:55:08.171Z,9.10
2022-10-23T05:57:09.859Z,9.10
2022-10-23T05:59:11.548Z,9.10
2022-10-23T06:01:14.127Z,9.10
2022-10-23T06:03:15.804Z,9.10
2022-10-23T06:05:17.444Z,9.10
2022-10-23T06:07:22.985Z,9.00
2022-10-23T06:09:24.620Z,9.00
2022-10-23T06:11:26.252Z,9.10
2022-10-23T06:13:27.849Z,9.00
2022-10-23T06:15:29.471Z,9.00
2022-10-23T06:17:31.136Z,9.00
2022-10-23T06:19:32.802Z,9.00
2022-10-23T06:21:36.336Z,9.10
2022-10-23T06:23:38.567Z,9.10
2022-10-23T06:25:40.197Z,9.10
2022-10-23T06:27:41.862Z,9.10
2022-10-23T06:29:43.580Z,9.10
2022-10-23T06:31:45.221Z,9.10
2022-10-23T06:33:46.832Z,9.20
2022-10-23T06:35:48.693Z,9.40
2022-10-23T06:37:50.400Z,9.20
2022-10-23T06:39:52.056Z,9.20
2022-10-23T06:41:53.697Z,9.20
2022-10-23T06:43:55.370Z,9.30
2022-10-23T06:45:59.903Z,9.30
2022-10-23T06:48:01.696Z,9.40
2022-10-23T06:50:03.505Z,9.40
2022-10-23T06:52:05.194Z,9.40
2022-10-23T06:54:06.827Z,9.50
2022-10-23T06:56:08.560Z,9.50
2022-10-23T06:58:10.954Z,9.50
2022-10-23T07:00:12.994Z,9.60
2022-10-23T07:02:14.639Z,9.60
2022-10-23T07:04:16.406Z,9.70
2022-10-23T07:06:18.021Z,9.70
2022-10-23T07:08:19.697Z,9.70
2022-10-23T07:10:21.486Z,9.80
2022-10-23T07:12:23.169Z,9.80
2022-10-23T07:14:25.061Z,9.80
2022-10-23T07:16:27.022Z,9.90
2022-10-23T07:18:28.719Z,9.90
2022-10-23T07:20:30.403Z,10.00
2022-10-23T07:22:32.062Z,10.00
2022-10-23T07:24:37.218Z,10.10
2022-10-23T07:26:38.875Z,10.20
2022-10-23T07:28:41.458Z,10.20
2022-10-23T07:30:43.102Z,10.30
2022-10-23T07:32:44.776Z,10.40
2022-10-23T07:34:46.440Z,10.40
2022-10-23T07:36:48.103Z,10.50
2022-10-23T07:38:50.638Z,10.60
2022-10-23T07:40:52.335Z,10.60
2022-10-23T07:42:56.459Z,10.60
2022-10-23T07:44:58.589Z,10.70
2022-10-23T07:47:00.477Z,10.70
2022-10-23T07:49:02.136Z,10.80
2022-10-23T07:51:08.346Z,10.80
2022-10-23T07:53:36.513Z,10.90
2022-10-23T07:55:38.128Z,10.90
2022-10-23T07:57:40.110Z,11.00
2022-10-23T07:59:41.732Z,11.00
2022-10-23T08:01:43.659Z,11.00
2022-10-23T08:03:45.511Z,11.10
2022-10-23T08:05:47.167Z,11.10
2022-10-23T08:07:48.832Z,11.20
2022-10-23T08:09:50.482Z,11.20
2022-10-23T08:11:52.136Z,11.20
2022-10-23T08:13:54.326Z,11.30
2022-10-23T08:15:56.680Z,11.30
2022-10-23T08:17:58.332Z,11.40
2022-10-23T08:19:59.944Z,11.40
2022-10-23T08:22:01.628Z,11.50
2022-10-23T08:24:03.461Z,11.60
2022-10-23T08:26:05.998Z,11.60
2022-10-23T08:28:08.146Z,11.70
2022-10-23T08:30:10.089Z,11.80
2022-10-23T08:32:11.716Z,11.80
2022-10-23T08:34:13.666Z,11.90
2022-10-23T08:36:25.860Z,12.00
2022-10-23T08:38:27.456Z,12.10
2022-10-23T08:40:29.101Z,12.20
2022-10-23T08:42:30.712Z,12.30
2022-10-23T08:44:34.219Z,12.40
2022-10-23T08:46:46.931Z,12.50
2022-10-23T08:48:50.937Z,12.60
2022-10-23T08:50:57.497Z,12.70
2022-10-23T08:53:02.159Z,12.80
2022-10-23T08:55:06.811Z,12.90
2022-10-23T08:57:13.438Z,13.00
2022-10-23T08:59:39.610Z,13.10
2022-10-23T09:01:42.927Z,13.20
2022-10-23T09:03:44.660Z,13.30
2022-10-23T09:05:46.261Z,13.30
2022-10-23T09:07:56.207Z,13.50
2022-10-23T09:10:06.972Z,13.50
2022-10-23T09:12:13.286Z,13.60
2022-10-23T09:14:29.801Z,13.70
2022-10-23T09:16:43.878Z,13.80
2022-10-23T09:18:47.350Z,13.90
2022-10-23T09:20:50.052Z,13.90
2022-10-23T09:22:57.185Z,14.00
2022-10-23T09:24:58.846Z,14.10
2022-10-23T09:27:00.710Z,14.20
2022-10-23T09:29:07.640Z,14.20
2022-10-23T09:31:10.774Z,14.30
2022-10-23T09:33:20.024Z,14.30
2022-10-23T09:35:22.919Z,14.40
2022-10-23T09:37:29.156Z,14.50
2022-10-23T09:39:32.676Z,14.60
2022-10-23T09:41:38.625Z,14.70
2022-10-23T09:43:40.264Z,14.70
2022-10-23T09:45:42.649Z,14.80
2022-10-23T09:47:44.604Z,14.90
2022-10-23T09:49:48.005Z,15.00
2022-10-23T09:52:03.813Z,15.00
2022-10-23T09:54:05.471Z,15.10
2022-10-23T09:56:14.289Z,15.20
2022-10-23T09:58:25.108Z,15.30
2022-10-23T10:00:27.497Z,15.40
2022-10-23T10:02:30.953Z,15.50
2022-10-23T10:04:36.892Z,15.50
2022-10-23T10:06:38.603Z,15.60
2022-10-23T10:08:46.359Z,15.80
2022-10-23T10:10:54.975Z,15.80
2022-10-23T10:12:59.402Z,15.90
2022-10-23T10:15:08.490Z,16.00
2022-10-23T10:17:39.424Z,16.10
2022-10-23T10:19:41.089Z,16.20
2022-10-23T10:22:08.734Z,16.30
2022-10-23T10:24:28.832Z,16.40
2022-10-23T10:26:42.623Z,16.40
2022-10-23T10:28:55.974Z,16.60
2022-10-23T10:31:16.542Z,16.60
2022-10-23T10:33:22.017Z,16.70
2022-10-23T10:35:49.869Z,16.80
2022-10-23T10:38:09.688Z,16.80
2022-10-23T10:40:20.129Z,16.90
2022-10-23T10:42:24.880Z,17.00
2022-10-23T10:44:43.559Z,17.10
2022-10-23T10:46:48.153Z,17.20
2022-10-23T10:48:49.801Z,17.30
2022-10-23T10:50:57.795Z,17.30
2022-10-23T10:53:05.049Z,17.40
2022-10-23T10:55:12.771Z,17.40
2022-10-23T10:57:34.647Z,17.50
2022-10-23T10:59:41.727Z,17.60
2022-10-23T11:02:06.539Z,17.60
2022-10-23T11:04:20.852Z,17.70
2022-10-23T11:06:24.363Z,17.80
2022-10-23T11:08:28.031Z,17.80
2022-10-23T11:10:29.937Z,17.90
2022-10-23T11:12:32.439Z,17.90
2022-10-23T11:14:34.611Z,18.00
2022-10-23T11:16:37.532Z,18.00
2022-10-23T11:18:41.356Z,18.10
2022-10-23T11:20:52.822Z,18.10
2022-10-23T11:23:09.503Z,18.10
2022-10-23T11:25:12.214Z,18.20
2022-10-23T11:27:16.869Z,18.20
2022-10-23T11:29:33.776Z,18.30
2022-10-23T11:31:39.953Z,18.30
2022-10-23T11:33:53.744Z,18.30
2022-10-23T11:35:55.342Z,18.30
2022-10-23T11:38:00.967Z,18.40
2022-10-23T11:40:13.767Z,18.40
2022-10-23T11:42:28.432Z,18.50
2022-10-23T11:44:42.704Z,18.50
2022-10-23T11:46:44.326Z,18.60
2022-10-23T11:48:47.643Z,18.70
2022-10-23T11:50:51.218Z,18.70
2022-10-23T11:53:12.627Z,18.80
2022-10-23T11:55:15.077Z,18.80
2022-10-23T11:57:17.607Z,18.90
2022-10-23T11:59:19.349Z,18.90
2022-10-23T12:01:39.256Z,19.00
2022-10-23T12:04:01.243Z,19.00
2022-10-23T12:06:04.301Z,19.10
2022-10-23T12:08:07.929Z,19.10
2022-10-23T12:10:26.533Z,19.20
2022-10-23T12:12:31.185Z,19.30
2022-10-23T12:14:32.859Z,19.40
2022-10-23T12:16:35.450Z,19.40
2022-10-23T12:18:47.716Z,19.40
2022-10-23T12:20:51.836Z,19.40
2022-10-23T12:22:53.415Z,19.50
2022-10-23T12:25:04.630Z,19.50
2022-10-23T12:27:14.506Z,19.60
2022-10-23T12:29:34.950Z,19.70
2022-10-23T12:31:47.915Z,19.70
2022-10-23T12:33:52.898Z,19.70
2022-10-23T12:35:54.489Z,19.80
2022-10-23T12:38:14.958Z,19.90
2022-10-23T12:40:16.565Z,19.90
2022-10-23T12:42:26.144Z,20.00
2022-10-23T12:44:27.939Z,20.00
2022-10-23T12:46:48.664Z,20.00
2022-10-23T12:48:51.063Z,20.10
2022-10-23T12:50:54.162Z,20.10
2022-10-23T12:52:55.895Z,20.10
2022-10-23T12:54:59.420Z,20.10
2022-10-23T12:57:01.017Z,20.10
2022-10-23T12:59:03.893Z,20.10
2022-10-23T13:01:06.445Z,20.20
2022-10-23T13:03:10.855Z,20.20
2022-10-23T13:05:16.860Z,20.20
2022-10-23T13:07:20.325Z,20.20
2022-10-23T13:09:28.843Z,20.30
2022-10-23T13:11:30.890Z,20.30
2022-10-23T13:13:32.559Z,20.30
2022-10-23T13:15:41.455Z,20.40
2022-10-23T13:17:47.373Z,20.50
2022-10-23T13:19:49.153Z,20.40
2022-10-23T13:21:50.788Z,20.50
2022-10-23T13:23:52.797Z,20.50
2022-10-23T13:26:05.306Z,20.60
2022-10-23T13:28:12.896Z,20.60
2022-10-23T13:30:34.906Z,20.60
2022-10-23T13:32:36.513Z,20.60
2022-10-23T13:34:38.299Z,20.70
2022-10-23T13:36:52.525Z,20.70
2022-10-23T13:39:01.007Z,20.70
2022-10-23T13:41:03.556Z,20.70
2022-10-23T13:43:10.885Z,20.70
2022-10-23T13:45:16.090Z,20.70
2022-10-23T13:47:18.525Z,20.70
2022-10-23T13:49:20.481Z,20.70
2022-10-23T13:51:23.024Z,20.70
2022-10-23T13:53:24.619Z,20.70
2022-10-23T13:55:26.942Z,20.70
2022-10-23T13:57:28.596Z,20.70
2022-10-23T13:59:30.214Z,20.60
2022-10-23T14:01:32.986Z,20.60
2022-10-23T14:03:35.450Z,20.60
2022-10-23T14:05:37.074Z,20.60
2022-10-23T14:07:38.707Z,20.50
2022-10-23T14:09:40.324Z,20.50
2022-10-23T14:11:42.396Z,20.50
2022-10-23T14:13:44.519Z,20.50
2022-10-23T14:15:53.203Z,20.50
2022-10-23T14:17:58.971Z,20.50
2022-10-23T14:20:04.110Z,20.50
2022-10-23T14:22:07.616Z,20.50
2022-10-23T14:24:09.332Z,20.50
2022-10-23T14:26:12.187Z,20.50
2022-10-23T14:28:13.885Z,20.50
2022-10-23T14:30:15.543Z,20.40
2022-10-23T14:32:17.228Z,20.40
2022-10-23T14:34:18.952Z,20.30
2022-10-23T14:36:20.697Z,20.30
2022-10-23T14:38:22.383Z,20.20
2022-10-23T14:40:24.002Z,20.20
2022-10-23T14:42:28.412Z,20.20
2022-10-23T14:44:32.253Z,20.10
2022-10-23T14:46:35.481Z,20.00
2022-10-23T14:48:37.807Z,20.00
2022-10-23T14:50:42.891Z,19.90
2022-10-23T14:52:44.529Z,19.90
2022-10-23T14:54:46.145Z,19.80
2022-10-23T14:56:47.772Z,19.80
2022-10-23T14:58:49.426Z,19.80
2022-10-23T15:01:00.545Z,19.70
2022-10-23T15:03:02.274Z,19.60
2022-10-23T15:05:05.493Z,19.50
2022-10-23T15:07:07.168Z,19.50
2022-10-23T15:09:08.857Z,19.40
2022-10-23T15:11:12.584Z,19.40
2022-10-23T15:13:14.484Z,19.40
2022-10-23T15:15:16.132Z,19.30
2022-10-23T15:17:17.803Z,19.20
2022-10-23T15:19:19.557Z,19.20
2022-10-23T15:21:21.143Z,19.10
2022-10-23T15:23:22.802Z,19.10
2022-10-23T15:25:24.451Z,19.00
2022-10-23T15:27:26.318Z,19.00
2022-10-23T15:29:28.133Z,18.90
2022-10-23T15:31:29.775Z,18.90
2022-10-23T15:33:31.604Z,18.80
2022-10-23T15:35:33.315Z,18.70
2022-10-23T15:37:34.988Z,18.70
2022-10-23T15:39:36.696Z,18.60
2022-10-23T15:41:39.500Z,18.60
2022-10-23T15:43:41.162Z,18.60
2022-10-23T15:45:43.014Z,18.50
2022-10-23T15:47:44.946Z,18.50
2022-10-23T15:49:46.645Z,18.40
2022-10-23T15:51:48.409Z,18.30
2022-10-23T15:53:50.314Z,18.20
2022-10-23T15:55:51.997Z,18.20
2022-10-23T15:57:54.669Z,18.10
2022-10-23T15:59:56.336Z,18.10
2022-10-23T16:01:58.196Z,18.00
2022-10-23T16:04:00.046Z,17.90
2022-10-23T16:06:05.956Z,17.80
2022-10-23T16:08:07.684Z,17.80
2022-10-23T16:10:09.369Z,17.70
2022-10-23T16:12:11.132Z,17.70
2022-10-23T16:14:16.920Z,17.60
2022-10-23T16:16:18.514Z,17.60
2022-10-23T16:18:20.694Z,17.50
2022-10-23T16:20:22.459Z,17.40
2022-10-23T16:22:24.070Z,17.40
2022-10-23T16:24:25.744Z,17.30
2022-10-23T16:26:28.035Z,17.30
2022-10-23T16:28:29.682Z,17.20
2022-10-23T16:30:31.468Z,17.20
2022-10-23T16:32:33.169Z,17.10
2022-10-23T16:34:34.814Z,17.10
2022-10-23T16:36:39.111Z,17.10
2022-10-23T16:38:40.877Z,17.00
2022-10-23T16:40:42.542Z,17.00
2022-10-23T16:42:44.481Z,16.90
2022-10-23T16:44:46.341Z,16.90
2022-10-23T16:46:48.028Z,16.80
2022-10-23T16:48:53.035Z,16.80
2022-10-23T16:50:54.730Z,16.70
2022-10-23T16:52:56.417Z,16.70
2022-10-23T16:54:58.712Z,16.70
2022-10-23T16:57:00.567Z,16.60
2022-10-23T16:59:02.283Z,16.60
2022-10-23T17:01:05.982Z,16.50
2022-10-23T17:03:07.786Z,16.50
2022-10-23T17:05:09.510Z,16.50
2022-10-23T17:07:13.127Z,16.40
2022-10-23T17:09:14.863Z,16.40
2022-10-23T17:11:18.442Z,16.40
2022-10-23T17:13:20.121Z,16.30
2022-10-23T17:15:23.815Z,16.30
2022-10-23T17:17:25.558Z,16.20
2022-10-23T17:21:49.826Z,16.10
2022-10-23T17:23:52.411Z,16.10
2022-10-23T17:25:54.727Z,16.10
2022-10-23T17:27:56.381Z,16.00
2022-10-23T17:29:58.159Z,16.00
2022-10-23T17:32:00.156Z,16.00
2022-10-23T17:34:04.032Z,16.00
2022-10-23T17:36:05.857Z,16.00
2022-10-23T17:38:07.499Z,16.00
2022-10-23T17:40:09.389Z,16.00
2022-10-23T17:42:11.431Z,15.90
2022-10-23T17:44:13.113Z,15.90
2022-10-23T17:46:15.093Z,15.90
2022-10-23T17:48:17.120Z,15.90
2022-10-23T17:50:19.534Z,15.90
2022-10-23T17:52:21.195Z,15.90
2022-10-23T17:54:23.748Z,15.90
2022-10-23T17:56:26.890Z,15.90
2022-10-23T17:58:28.597Z,15.90
2022-10-23T18:00:30.283Z,15.90
2022-10-23T18:02:32.010Z,15.90
2022-10-23T18:04:34.518Z,15.90
2022-10-23T18:06:37.600Z,15.90
2022-10-23T18:08:40.145Z,15.80
2022-10-23T18:10:41.880Z,15.80
2022-10-23T18:12:43.606Z,15.80
2022-10-23T18:14:45.304Z,15.80
2022-10-23T18:16:46.981Z,15.80
2022-10-23T18:18:48.757Z,15.80
2022-10-23T18:20:50.399Z,15.70
2022-10-23T18:22:52.039Z,15.70
2022-10-23T18:24:53.732Z,15.70
2022-10-23T18:26:55.394Z,15.70
2022-10-23T18:28:58.678Z,15.70
2022-10-23T18:31:00.341Z,15.70
2022-10-23T18:33:02.009Z,15.70
2022-10-23T18:35:03.808Z,15.60
2022-10-23T18:37:05.443Z,15.60
2022-10-23T18:39:07.953Z,15.60
2022-10-23T18:41:09.621Z,15.60
2022-10-23T18:43:14.894Z,15.50
2022-10-23T18:45:16.963Z,15.50
2022-10-23T18:47:18.609Z,15.50
2022-10-23T18:49:20.457Z,15.60
2022-10-23T18:51:24.202Z,15.50
2022-10-23T18:53:25.880Z,15.50
2022-10-23T18:55:27.629Z,15.50
2022-10-23T18:57:29.300Z,15.50
2022-10-23T18:59:30.966Z,15.50
2022-10-23T19:01:32.795Z,15.40
2022-10-23T19:03:34.553Z,15.40
2022-10-23T19:05:36.287Z,15.40
2022-10-23T19:07:44.305Z,15.30
2022-10-23T19:09:46.281Z,15.30
2022-10-23T19:11:47.924Z,15.30
2022-10-23T19:13:49.848Z,15.20
2022-10-23T19:15:51.504Z,15.20
2022-10-23T19:17:53.297Z,15.20
2022-10-23T19:19:56.878Z,15.20
2022-10-23T19:21:59.243Z,15.20
2022-10-23T19:24:03.113Z,15.20
2022-10-23T19:26:08.849Z,15.10
2022-10-23T19:28:10.672Z,15.10
2022-10-23T19:30:13.748Z,15.10
2022-10-23T19:32:15.661Z,15.10
2022-10-23T19:34:20.050Z,15.00
2022-10-23T19:36:23.544Z,15.00
2022-10-23T19:38:25.421Z,15.00
2022-10-23T19:40:27.316Z,15.00
2022-10-23T19:42:28.971Z,15.00
2022-10-23T19:44:30.673Z,15.00
2022-10-23T19:46:32.318Z,15.00
2022-10-23T19:48:34.007Z,15.00
2022-10-23T19:50:35.769Z,15.00
2022-10-23T19:52:37.429Z,15.00
2022-10-23T19:54:41.285Z,14.90
2022-10-23T19:56:42.919Z,14.90
2022-10-23T19:58:44.549Z,14.90
2022-10-23T20:00:46.158Z,14.90
2022-10-23T20:02:50.141Z,14.90
2022-10-23T20:04:54.449Z,14.90
2022-10-23T20:06:56.516Z,14.90
2022-10-23T20:08:58.243Z,14.90
2022-10-23T20:10:59.890Z,14.70
2022-10-23T20:13:18.652Z,14.80
2022-10-23T20:15:22.008Z,14.90
2022-10-23T20:17:24.229Z,14.80
2022-10-23T20:19:25.969Z,14.80
2022-10-23T20:21:27.664Z,14.90
2022-10-23T20:23:29.280Z,14.80
2022-10-23T20:25:31.005Z,14.80
2022-10-23T20:27:32.836Z,14.80
2022-10-23T20:29:34.522Z,14.80
2022-10-23T20:31:36.627Z,14.80
2022-10-23T20:33:39.007Z,14.80
2022-10-23T20:35:41.739Z,14.80
2022-10-23T20:37:43.697Z,14.80
2022-10-23T20:39:45.780Z,14.80
2022-10-23T20:41:47.538Z,14.80
2022-10-23T20:43:49.209Z,14.80
2022-10-23T20:45:50.856Z,14.80
2022-10-23T20:47:52.516Z,14.80
2022-10-23T20:49:54.154Z,14.80
2022-10-23T20:51:56.050Z,14.80
2022-10-23T20:53:57.655Z,14.80
2022-10-23T20:55:59.325Z,14.80
2022-10-23T20:58:00.963Z,14.80
2022-10-23T21:00:05.048Z,14.90
2022-10-23T21:02:07.071Z,14.90
2022-10-23T21:04:10.726Z,14.90
2022-10-23T21:06:13.484Z,14.90
2022-10-23T21:08:15.181Z,14.90
2022-10-23T21:10:16.913Z,14.90
2022-10-23T21:12:18.556Z,14.90
2022-10-23T21:14:20.191Z,14.90
2022-10-23T21:16:26.114Z,15.00
2022-10-23T21:18:44.898Z,15.00
2022-10-23T21:20:47.489Z,15.00
2022-10-23T21:22:49.133Z,15.00
2022-10-23T21:24:50.782Z,15.00
2022-10-23T21:26:52.428Z,15.00
2022-10-23T21:29:16.911Z,15.10
2022-10-23T21:31:16.078Z,15.20
2022-10-23T21:33:17.754Z,15.20
2022-10-23T21:35:19.357Z,15.30
2022-10-23T21:37:21.010Z,15.40
2022-10-23T21:39:22.641Z,15.60
2022-10-23T21:41:25.736Z,15.50
2022-10-23T21:43:27.339Z,15.50
2022-10-23T21:45:29.004Z,15.60
2022-10-23T21:47:30.673Z,15.60
2022-10-23T21:49:32.334Z,15.60
2022-10-23T21:51:37.703Z,15.70
2022-10-23T21:53:39.294Z,15.70
2022-10-23T21:55:40.921Z,15.70
2022-10-23T21:57:42.583Z,15.80
2022-10-23T21:59:44.192Z,15.90
2022-10-23T22:01:47.048Z,15.90
2022-10-23T22:03:48.866Z,16.00
2022-10-23T22:05:50.525Z,16.10
2022-10-23T22:07:52.185Z,16.20
2022-10-23T22:09:53.784Z,16.30
2022-10-23T22:11:55.878Z,16.30
2022-10-23T22:13:58.280Z,16.40
2022-10-23T22:16:03.396Z,16.40
2022-10-23T22:18:05.052Z,16.50
2022-10-23T22:20:07.043Z,16.50
2022-10-23T22:22:08.935Z,16.50
2022-10-23T22:24:10.958Z,16.50
2022-10-23T22:26:31.910Z,16.60
2022-10-23T22:28:33.556Z,16.60
2022-10-23T22:30:38.269Z,16.60
2022-10-23T22:32:39.978Z,16.60
2022-10-23T22:34:52.415Z,16.60
2022-10-23T22:36:55.143Z,16.60
2022-10-23T22:38:56.997Z,16.70
2022-10-23T22:41:02.095Z,16.70
2022-10-23T22:43:03.931Z,16.70
2022-10-23T22:45:05.794Z,16.70
2022-10-23T22:47:07.471Z,16.70
2022-10-23T22:49:09.172Z,16.70
2022-10-23T22:51:11.843Z,16.70
2022-10-23T22:53:13.595Z,16.80
2022-10-23T22:55:15.201Z,16.80
2022-10-23T22:57:16.907Z,16.80
2022-10-23T22:59:18.645Z,16.90
2022-10-23T23:01:22.411Z,16.90
2022-10-23T23:03:24.103Z,17.00
2022-10-23T23:05:25.751Z,17.00
2022-10-23T23:07:28.085Z,17.10
2022-10-23T23:09:29.681Z,17.10
2022-10-23T23:11:45.638Z,17.20
2022-10-23T23:13:53.584Z,17.20
2022-10-23T23:15:55.544Z,17.30
2022-10-23T23:17:57.333Z,17.30
2022-10-23T23:19:59.021Z,17.30
2022-10-23T23:22:01.024Z,17.40
2022-10-23T23:24:02.663Z,17.50
2022-10-23T23:26:05.545Z,17.50
2022-10-23T23:28:07.203Z,17.50
2022-10-23T23:30:09.378Z,17.60
2022-10-23T23:32:11.029Z,17.60
2022-10-23T23:34:12.675Z,17.60
2022-10-23T23:36:16.116Z,17.60
2022-10-23T23:38:17.721Z,17.60
2022-10-23T23:40:19.318Z,17.60
2022-10-23T23:42:21.830Z,17.60
2022-10-23T23:44:23.524Z,17.70
2022-10-23T23:46:26.089Z,17.60
2022-10-23T23:48:27.981Z,17.60
2022-10-23T23:50:29.619Z,17.60
2022-10-23T23:52:31.269Z,17.60
2022-10-23T23:54:32.928Z,17.60
2022-10-23T23:56:34.583Z,17.60
2022-10-23T23:58:36.437Z,17.60
